map of ANX home
ANX - Airport
Location
City:  Andoya, Norway
Name:Andoya/Andenes
ICAO:ENAN
IATA:ANX

Details
Type:Airport (Aerodrome, Airfield)
Use:Military, International (customs port of entry)
Latitude:6917'33"N (69.292500)
Longitude:1608'39"E (16.144167)
Datum:WGS 1984
Elevation:43 ft (13 m)
Variation:7.35E (WMM2015 magnetic declination)
0.23 annual change
Runways:2
Longest:8097 × 148 ft (2468 × 45 m), paved

Time
Time Zone:UTC+1 (DST+2)
Local Time:

Weather
METAR:ENAN 181920Z 16011KT 9999 BKN047 M02/M05 Q0995
TAF:ENAN 181700Z 1818/1918 03008KT 9999 FEW020 BKN030
TEMPO 1818/1918 0500 +SHSNGS DRSN VV005
TEMPO 1908/1918 03015G25KT

Related Locations
Nearby:
Farthest:NZTB: 11663 mi / 18769 km
Terra Nova Bay [Mario Zucchelli Station], AQ

Find:

   beyond  
but within

Other Information
Maps:
NOTAMs:
Links:
Sources:

  
  • flag of Norway
  

Sectional Chart

Flight Planning
at skyvector.com

Satellite Image

Google Maps Satellite view

 

Copyright © 2004-2019 Karl L. Swartz. All rights reserved.
The Great Circle Mapper name and logo are trademarks of the Great Circle Mapper.
All other trademarks mentioned herein belong to their respective owners.
Please see credits for attibutions and further copyright information.

  Follow gcmap on Facebook Follow gcmap on Twitter Follow gcmap on Google+ GCmap on LinkedIn

hCard Microformat

Geo Microformat